createdAt,value
2023-11-18T00:01:23.625Z,10.30
2023-11-18T00:04:17.243Z,11.40
2023-11-18T00:07:06.146Z,13.00
2023-11-18T00:09:53.849Z,12.60
2023-11-18T00:12:43.224Z,12.50
2023-11-18T00:15:30.611Z,12.20
2023-11-18T00:18:17.739Z,12.70
2023-11-18T00:21:05.795Z,15.00
2023-11-18T00:23:54.479Z,16.60
2023-11-18T00:26:41.057Z,14.60
2023-11-18T00:29:28.252Z,15.10
2023-11-18T00:32:15.665Z,15.90
2023-11-18T00:35:05.941Z,12.90
2023-11-18T00:37:53.734Z,17.70
2023-11-18T00:40:40.552Z,13.10
2023-11-18T00:43:27.738Z,12.80
2023-11-18T00:46:14.522Z,13.20
2023-11-18T00:49:01.676Z,10.10
2023-11-18T00:51:48.848Z,9.20
2023-11-18T00:54:37.850Z,10.40
2023-11-18T00:57:24.726Z,19.60
2023-11-18T01:00:15.516Z,15.70
2023-11-18T01:03:02.735Z,12.80
2023-11-18T01:05:50.005Z,9.90
2023-11-18T01:08:36.899Z,8.80
2023-11-18T01:11:23.613Z,9.40
2023-11-18T01:14:10.884Z,9.20
2023-11-18T01:16:58.001Z,8.90
2023-11-18T01:19:45.367Z,10.70
2023-11-18T01:22:32.527Z,9.00
2023-11-18T01:25:20.173Z,10.00
2023-11-18T01:28:07.692Z,10.40
2023-11-18T01:30:54.744Z,9.50
2023-11-18T01:33:42.502Z,8.80
2023-11-18T01:36:31.658Z,9.60
2023-11-18T01:39:19.407Z,8.50
2023-11-18T01:42:07.800Z,9.00
2023-11-18T01:44:57.917Z,8.30
2023-11-18T01:47:46.806Z,7.10
2023-11-18T01:50:33.514Z,6.60
2023-11-18T01:53:21.825Z,9.50
2023-11-18T01:56:10.005Z,8.00
2023-11-18T01:59:00.440Z,8.00
2023-11-18T02:01:50.562Z,7.00
2023-11-18T02:04:38.006Z,9.30
2023-11-18T02:07:25.624Z,7.00
2023-11-18T02:10:12.865Z,6.40
2023-11-18T02:13:07.263Z,7.00
2023-11-18T02:15:56.148Z,7.60
2023-11-18T02:18:47.020Z,10.00
2023-11-18T02:21:35.676Z,9.30
2023-11-18T02:24:31.818Z,8.80
2023-11-18T02:27:21.599Z,9.70
2023-11-18T02:30:13.764Z,9.60
2023-11-18T02:33:16.030Z,8.40
2023-11-18T02:36:11.856Z,7.80
2023-11-18T02:38:59.712Z,10.80
2023-11-18T02:41:49.818Z,7.60
2023-11-18T02:44:37.942Z,7.90
2023-11-18T02:47:25.893Z,8.70
2023-11-18T02:50:14.911Z,7.80
2023-11-18T02:53:02.136Z,8.00
2023-11-18T02:55:49.479Z,8.80
2023-11-18T02:58:36.453Z,8.50
2023-11-18T03:01:26.455Z,9.10
2023-11-18T03:04:15.328Z,8.20
2023-11-18T03:07:02.253Z,8.70
2023-11-18T03:09:49.003Z,8.20
2023-11-18T03:12:35.782Z,8.80
2023-11-18T03:15:24.273Z,7.60
2023-11-18T03:18:12.104Z,7.60
2023-11-18T03:20:58.919Z,8.00
2023-11-18T03:23:46.752Z,7.50
2023-11-18T03:26:33.746Z,7.00
2023-11-18T03:29:21.453Z,5.30
2023-11-18T03:32:08.736Z,5.80
2023-11-18T03:35:00.607Z,5.20
2023-11-18T03:37:48.036Z,4.50
2023-11-18T03:40:36.820Z,5.30
2023-11-18T03:43:24.063Z,4.50
2023-11-18T03:46:12.316Z,5.00
2023-11-18T03:48:59.244Z,5.80
2023-11-18T03:51:46.053Z,3.70
2023-11-18T03:54:32.811Z,6.00
2023-11-18T03:57:19.824Z,3.20
2023-11-18T04:00:08.312Z,3.70
2023-11-18T04:03:00.640Z,5.50
2023-11-18T04:05:49.187Z,4.70
2023-11-18T04:08:36.471Z,4.90
2023-11-18T04:11:23.584Z,5.60
2023-11-18T04:14:10.463Z,4.90
2023-11-18T04:16:58.957Z,5.50
2023-11-18T04:19:46.482Z,4.20
2023-11-18T04:22:33.449Z,4.50
2023-11-18T04:25:20.495Z,4.40
2023-11-18T04:28:07.103Z,3.80
2023-11-18T04:30:54.278Z,4.70
2023-11-18T04:33:41.653Z,4.80
2023-11-18T04:36:28.342Z,3.10
2023-11-18T04:39:17.302Z,2.90
2023-11-18T04:42:04.916Z,3.50
2023-11-18T04:44:52.304Z,3.70
2023-11-18T04:47:39.830Z,3.10
2023-11-18T04:50:26.917Z,2.60
2023-11-18T04:53:13.798Z,2.10
2023-11-18T04:56:00.969Z,2.20
2023-11-18T04:58:48.970Z,2.60
2023-11-18T05:01:35.883Z,1.90
2023-11-18T05:04:23.134Z,1.70
2023-11-18T05:07:10.135Z,2.60
2023-11-18T05:09:57.186Z,2.40
2023-11-18T05:12:45.025Z,2.60
2023-11-18T05:15:32.863Z,2.30
2023-11-18T05:18:19.824Z,2.40
2023-11-18T05:21:07.374Z,2.60
2023-11-18T05:23:54.521Z,2.80
2023-11-18T05:26:41.886Z,3.20
2023-11-18T05:29:29.996Z,3.40
2023-11-18T05:32:17.115Z,3.10
2023-11-18T05:35:07.650Z,3.00
2023-11-18T05:37:55.631Z,2.80
2023-11-18T05:40:45.104Z,3.40
2023-11-18T05:43:42.205Z,3.60
2023-11-18T05:46:34.123Z,3.60
2023-11-18T05:49:23.925Z,2.30
2023-11-18T05:52:10.707Z,2.50
2023-11-18T05:54:57.966Z,3.10
2023-11-18T05:57:46.357Z,2.90
2023-11-18T06:00:39.157Z,2.00
2023-11-18T06:03:28.530Z,2.50
2023-11-18T06:06:21.194Z,6.30
2023-11-18T06:09:19.147Z,6.50
2023-11-18T06:12:10.171Z,9.40
2023-11-18T06:14:59.370Z,8.30
2023-11-18T06:17:47.175Z,17.80
2023-11-18T06:20:36.500Z,24.60
2023-11-18T06:23:26.181Z,10.70
2023-11-18T06:26:13.296Z,10.70
2023-11-18T06:29:00.905Z,10.70
2023-11-18T06:31:48.230Z,7.10
2023-11-18T06:34:35.197Z,6.10
2023-11-18T06:37:22.276Z,5.50
2023-11-18T06:40:17.708Z,5.50
2023-11-18T06:43:04.782Z,4.30
2023-11-18T06:45:52.070Z,6.90
2023-11-18T06:48:39.234Z,7.80
2023-11-18T06:51:28.883Z,6.40
2023-11-18T06:54:17.088Z,6.20
2023-11-18T06:57:04.419Z,10.30
2023-11-18T06:59:51.526Z,14.00
2023-11-18T07:02:39.633Z,11.40
2023-11-18T07:05:26.412Z,15.50
2023-11-18T07:08:14.517Z,13.40
2023-11-18T07:11:02.818Z,29.70
2023-11-18T07:13:50.719Z,30.90
2023-11-18T07:16:40.382Z,18.30
2023-11-18T07:19:27.224Z,14.00
2023-11-18T07:22:16.333Z,16.20
2023-11-18T07:25:04.040Z,15.80
2023-11-18T07:27:51.113Z,17.20
2023-11-18T07:30:38.381Z,17.30
2023-11-18T07:33:26.024Z,17.30
2023-11-18T07:36:13.188Z,16.70
2023-11-18T07:39:02.408Z,17.80
2023-11-18T07:41:49.373Z,20.30
2023-11-18T07:44:36.135Z,22.30
2023-11-18T07:47:23.347Z,24.00
2023-11-18T07:50:13.662Z,25.00
2023-11-18T07:53:00.929Z,17.10
2023-11-18T07:55:49.273Z,21.10
2023-11-18T07:58:39.259Z,18.70
2023-11-18T08:01:27.544Z,20.80
2023-11-18T08:04:15.112Z,18.60
2023-11-18T08:07:03.222Z,18.70
2023-11-18T08:09:50.246Z,20.10
2023-11-18T08:12:37.837Z,19.00
2023-11-18T08:15:24.678Z,18.70
2023-11-18T08:18:12.604Z,17.30
2023-11-18T08:21:01.551Z,18.10
2023-11-18T08:23:50.652Z,15.60
2023-11-18T08:26:38.715Z,15.20
2023-11-18T08:29:29.391Z,15.80
2023-11-18T08:32:16.706Z,16.60
2023-11-18T08:35:08.869Z,17.20
2023-11-18T08:37:55.966Z,23.20
2023-11-18T08:40:44.343Z,45.30
2023-11-18T08:43:31.334Z,33.10
2023-11-18T08:46:18.496Z,42.20
2023-11-18T08:49:12.132Z,88.70
2023-11-18T08:52:00.994Z,37.50
2023-11-18T08:55:07.190Z,69.80
2023-11-18T08:57:59.868Z,23.20
2023-11-18T09:01:05.846Z,19.70
2023-11-18T09:03:54.213Z,62.50
2023-11-18T09:06:41.618Z,43.20
2023-11-18T09:09:28.834Z,24.50
2023-11-18T09:12:16.083Z,16.60
2023-11-18T09:15:05.075Z,20.20
2023-11-18T09:17:51.644Z,16.20
2023-11-18T09:20:39.454Z,7.50
2023-11-18T09:23:28.571Z,10.60
2023-11-18T09:26:16.161Z,16.50
2023-11-18T09:29:03.427Z,9.80
2023-11-18T09:31:53.744Z,14.80
2023-11-18T09:34:43.933Z,36.50
2023-11-18T09:37:30.907Z,24.60
2023-11-18T09:40:19.403Z,25.80
2023-11-18T09:43:10.741Z,19.10
2023-11-18T09:46:02.957Z,35.30
2023-11-18T09:48:54.531Z,20.50
2023-11-18T09:51:43.707Z,17.70
2023-11-18T09:54:45.630Z,11.20
2023-11-18T09:57:35.932Z,119.60
2023-11-18T10:00:28.834Z,25.00
2023-11-18T10:03:17.298Z,20.20
2023-11-18T10:06:07.658Z,13.70
2023-11-18T10:08:55.343Z,15.50
2023-11-18T10:11:49.102Z,11.00
2023-11-18T10:14:36.826Z,9.30
2023-11-18T10:17:26.394Z,7.00
2023-11-18T10:20:17.669Z,13.40
2023-11-18T10:23:12.206Z,17.50
2023-11-18T10:26:02.793Z,11.80
2023-11-18T10:28:50.931Z,12.10
2023-11-18T10:31:38.839Z,10.90
2023-11-18T10:34:29.302Z,21.10
2023-11-18T10:37:18.268Z,27.20
2023-11-18T10:40:07.104Z,14.00
2023-11-18T10:42:54.411Z,66.90
2023-11-18T10:45:45.164Z,46.30
2023-11-18T10:48:34.509Z,50.30
2023-11-18T10:51:24.766Z,22.10
2023-11-18T10:54:18.598Z,19.20
2023-11-18T10:57:10.768Z,20.50
2023-11-18T11:00:34.008Z,11.10
2023-11-18T11:03:21.048Z,16.00
2023-11-18T11:06:20.375Z,17.10
2023-11-18T11:09:18.479Z,8.10
2023-11-18T11:12:16.293Z,11.10
2023-11-18T11:15:13.524Z,14.80
2023-11-18T11:18:10.328Z,25.90
2023-11-18T11:21:17.944Z,17.20
2023-11-18T11:24:13.928Z,16.30
2023-11-18T11:27:41.250Z,24.60
2023-11-18T11:30:39.970Z,26.40
2023-11-18T11:33:41.964Z,31.80
2023-11-18T11:36:37.570Z,24.40
2023-11-18T11:39:32.313Z,15.40
2023-11-18T11:45:21.616Z,15.70
2023-11-18T11:48:16.138Z,13.10
2023-11-18T11:54:16.675Z,10.60
2023-11-18T11:57:03.979Z,7.20
2023-11-18T11:59:54.386Z,18.50
2023-11-18T12:02:42.034Z,47.50
2023-11-18T12:05:29.921Z,101.60
2023-11-18T12:08:19.925Z,60.00
2023-11-18T12:11:11.063Z,40.20
2023-11-18T12:14:11.060Z,29.80
2023-11-18T12:17:09.467Z,31.70
2023-11-18T12:20:07.944Z,29.50
2023-11-18T12:23:16.130Z,21.00
2023-11-18T12:26:05.337Z,55.20
2023-11-18T12:28:55.039Z,10.50
2023-11-18T12:31:43.666Z,16.60
2023-11-18T12:34:50.786Z,17.30
2023-11-18T12:38:25.793Z,45.30
2023-11-18T12:41:44.878Z,28.50
2023-11-18T12:44:40.419Z,28.50
2023-11-18T12:47:30.278Z,16.10
2023-11-18T12:50:25.826Z,36.90
2023-11-18T12:56:04.822Z,28.10
2023-11-18T12:58:52.212Z,34.60
2023-11-18T13:01:39.161Z,41.60
2023-11-18T13:04:28.867Z,184.40
2023-11-18T13:07:21.454Z,37.20
2023-11-18T13:10:09.366Z,51.80
2023-11-18T13:12:56.337Z,32.10
2023-11-18T13:15:45.413Z,91.90
2023-11-18T13:18:48.721Z,46.10
2023-11-18T13:21:37.929Z,92.60
2023-11-18T13:24:25.069Z,28.10
2023-11-18T13:27:15.268Z,27.40
2023-11-18T13:30:02.144Z,35.70
2023-11-18T13:32:51.039Z,28.60
2023-11-18T13:35:38.373Z,29.60
2023-11-18T13:38:26.928Z,18.80
2023-11-18T13:41:29.834Z,22.10
2023-11-18T13:44:44.245Z,21.90
2023-11-18T13:47:33.821Z,12.70
2023-11-18T13:50:21.275Z,15.30
2023-11-18T13:53:09.769Z,30.90
2023-11-18T13:55:56.751Z,15.70
2023-11-18T13:58:46.856Z,53.00
2023-11-18T14:01:35.031Z,26.00
2023-11-18T14:04:29.912Z,36.70
2023-11-18T14:07:19.702Z,25.20
2023-11-18T14:10:09.594Z,44.00
2023-11-18T14:13:24.259Z,39.60
2023-11-18T14:16:13.961Z,28.70
2023-11-18T14:19:01.517Z,25.90
2023-11-18T14:21:48.275Z,43.90
2023-11-18T14:24:36.863Z,33.60
2023-11-18T14:27:23.949Z,42.40
2023-11-18T14:30:11.808Z,27.70
2023-11-18T14:32:58.764Z,22.10
2023-11-18T14:35:49.016Z,19.70
2023-11-18T14:38:36.028Z,33.20
2023-11-18T14:41:29.736Z,24.90
2023-11-18T14:44:16.916Z,47.90
2023-11-18T14:47:04.771Z,41.10
2023-11-18T14:49:51.720Z,72.50
2023-11-18T14:52:43.065Z,42.30
2023-11-18T14:55:31.039Z,59.00
2023-11-18T14:58:18.418Z,122.60
2023-11-18T15:01:08.269Z,76.60
2023-11-18T15:03:57.304Z,41.20
2023-11-18T15:06:44.438Z,38.20
2023-11-18T15:09:33.226Z,29.00
2023-11-18T15:12:21.281Z,28.20
2023-11-18T15:15:15.724Z,50.90
2023-11-18T15:18:15.124Z,23.60
2023-11-18T15:21:02.404Z,26.70
2023-11-18T15:23:51.414Z,25.00
2023-11-18T15:26:38.424Z,22.90
2023-11-18T15:29:32.733Z,17.20
2023-11-18T15:35:12.412Z,20.00
2023-11-18T15:38:02.350Z,23.90
2023-11-18T15:40:53.133Z,24.20
2023-11-18T15:43:40.377Z,32.40
2023-11-18T15:46:30.355Z,19.60
2023-11-18T15:49:20.303Z,22.10
2023-11-18T15:52:08.579Z,25.00
2023-11-18T15:54:55.715Z,31.70
2023-11-18T15:57:43.737Z,34.20
2023-11-18T16:00:31.106Z,35.30
2023-11-18T16:03:18.078Z,30.60
2023-11-18T16:06:07.358Z,38.80
2023-11-18T16:08:57.176Z,44.10
2023-11-18T16:11:44.175Z,34.70
2023-11-18T16:14:31.102Z,27.50
2023-11-18T16:17:18.994Z,26.90
2023-11-18T16:20:08.179Z,25.80
2023-11-18T16:22:56.516Z,26.30
2023-11-18T16:25:43.423Z,21.60
2023-11-18T16:28:32.825Z,21.30
2023-11-18T16:31:20.070Z,39.70
2023-11-18T16:34:07.963Z,25.90
2023-11-18T16:36:57.886Z,21.50
2023-11-18T16:39:48.189Z,23.90
2023-11-18T16:42:37.792Z,18.90
2023-11-18T16:45:26.130Z,27.50
2023-11-18T16:48:15.491Z,47.40
2023-11-18T16:51:02.947Z,26.60
2023-11-18T16:53:50.990Z,20.20
2023-11-18T16:56:37.769Z,22.50
2023-11-18T16:59:24.651Z,37.30
2023-11-18T17:02:13.495Z,27.70
2023-11-18T17:05:00.836Z,25.10
2023-11-18T17:07:50.041Z,21.10
2023-11-18T17:10:38.276Z,20.50
2023-11-18T17:13:26.761Z,17.90
2023-11-18T17:16:17.746Z,26.40
2023-11-18T17:19:05.757Z,24.30
2023-11-18T17:21:55.560Z,21.80
2023-11-18T17:24:43.075Z,26.20
2023-11-18T17:27:30.054Z,28.20
2023-11-18T17:30:17.655Z,27.70
2023-11-18T17:33:05.056Z,26.60
2023-11-18T17:35:51.991Z,28.10
2023-11-18T17:38:40.664Z,43.20
2023-11-18T17:41:27.420Z,28.90
2023-11-18T17:44:18.020Z,37.80
2023-11-18T17:47:05.263Z,31.10
2023-11-18T17:49:52.848Z,30.70
2023-11-18T17:52:45.283Z,27.60
2023-11-18T17:55:31.918Z,23.80
2023-11-18T17:58:19.411Z,28.30
2023-11-18T18:01:07.766Z,32.80
2023-11-18T18:03:55.958Z,34.00
2023-11-18T18:06:43.458Z,31.90
2023-11-18T18:09:30.978Z,29.60
2023-11-18T18:12:20.371Z,29.60
2023-11-18T18:15:09.950Z,26.50
2023-11-18T18:17:57.326Z,61.30
2023-11-18T18:20:49.427Z,38.30
2023-11-18T18:23:36.887Z,43.80
2023-11-18T18:26:23.806Z,36.70
2023-11-18T18:29:10.757Z,44.70
2023-11-18T18:31:57.959Z,47.80
2023-11-18T18:34:48.001Z,36.50
2023-11-18T18:37:34.905Z,61.60
2023-11-18T18:40:24.303Z,42.20
2023-11-18T18:43:11.868Z,40.30
2023-11-18T18:45:58.797Z,33.50
2023-11-18T18:48:45.853Z,25.70
2023-11-18T18:51:34.662Z,38.40
2023-11-18T18:54:22.992Z,28.60
2023-11-18T18:57:10.002Z,27.90
2023-11-18T18:59:57.128Z,30.00
2023-11-18T19:02:44.608Z,27.10
2023-11-18T19:05:32.028Z,22.90
2023-11-18T19:08:19.414Z,15.30
2023-11-18T19:11:07.258Z,23.90
2023-11-18T19:13:56.240Z,23.30
2023-11-18T19:16:44.417Z,34.20
2023-11-18T19:19:35.322Z,21.70
2023-11-18T19:22:22.402Z,27.00
2023-11-18T19:25:12.636Z,23.40
2023-11-18T19:27:59.703Z,21.70
2023-11-18T19:30:48.985Z,29.90
2023-11-18T19:33:35.925Z,37.20
2023-11-18T19:36:22.853Z,39.90
2023-11-18T19:39:09.849Z,42.00
2023-11-18T19:41:58.339Z,40.10
2023-11-18T19:44:45.162Z,134.40
2023-11-18T19:47:33.567Z,63.20
2023-11-18T19:53:15.546Z,25.20
2023-11-18T19:56:02.741Z,25.30
2023-11-18T19:58:50.782Z,23.60
2023-11-18T20:01:37.490Z,23.10
2023-11-18T20:04:28.167Z,25.70
2023-11-18T20:07:16.460Z,21.80
2023-11-18T20:10:05.791Z,22.10
2023-11-18T20:12:53.941Z,24.50
2023-11-18T20:15:40.751Z,23.80
2023-11-18T20:18:27.952Z,20.10
2023-11-18T20:21:17.131Z,23.60
2023-11-18T20:24:05.536Z,21.50
2023-11-18T20:26:52.413Z,28.30
2023-11-18T20:29:41.944Z,22.10
2023-11-18T20:32:29.854Z,24.60
2023-11-18T20:35:17.065Z,32.60
2023-11-18T20:38:04.240Z,24.60
2023-11-18T20:40:51.565Z,20.70
2023-11-18T20:43:38.329Z,23.30
2023-11-18T20:46:27.915Z,27.10
2023-11-18T20:49:18.622Z,20.70
2023-11-18T20:52:06.884Z,16.10
2023-11-18T20:54:53.779Z,18.10
2023-11-18T20:57:40.891Z,26.80
2023-11-18T21:00:27.753Z,29.10
2023-11-18T21:03:20.985Z,33.60
2023-11-18T21:06:08.746Z,29.50
2023-11-18T21:08:56.183Z,28.30
2023-11-18T21:11:43.417Z,45.50
2023-11-18T21:14:31.774Z,29.90
2023-11-18T21:17:19.123Z,25.80
2023-11-18T21:20:07.403Z,24.90
2023-11-18T21:22:54.570Z,31.10
2023-11-18T21:25:42.967Z,44.60
2023-11-18T21:28:29.655Z,48.30
2023-11-18T21:31:18.093Z,50.80
2023-11-18T21:34:06.038Z,57.20
2023-11-18T21:36:53.417Z,47.40
2023-11-18T21:39:40.444Z,42.30
2023-11-18T21:42:29.932Z,49.70
2023-11-18T21:45:16.618Z,62.20
2023-11-18T21:48:05.720Z,58.70
2023-11-18T21:50:54.082Z,56.90
2023-11-18T21:53:41.798Z,70.00
2023-11-18T21:56:36.383Z,71.10
2023-11-18T21:59:27.608Z,77.00
2023-11-18T22:02:14.915Z,87.30
2023-11-18T22:05:02.248Z,78.40
2023-11-18T22:07:49.582Z,65.30
2023-11-18T22:10:37.217Z,48.50
2023-11-18T22:13:27.746Z,55.60
2023-11-18T22:16:14.635Z,93.90
2023-11-18T22:19:01.588Z,123.90
2023-11-18T22:21:49.778Z,321.00
2023-11-18T22:24:37.870Z,196.30
2023-11-18T22:27:24.499Z,154.30
2023-11-18T22:30:17.511Z,177.80
2023-11-18T22:33:07.017Z,158.80
2023-11-18T22:35:55.297Z,176.30
2023-11-18T22:38:50.097Z,164.10
2023-11-18T22:44:24.592Z,274.30
2023-11-18T22:47:12.064Z,208.20
2023-11-18T22:50:01.256Z,429.30
2023-11-18T22:52:54.145Z,528.20
2023-11-18T22:55:41.601Z,412.20
2023-11-18T22:58:29.868Z,332.20
2023-11-18T23:01:21.484Z,269.90
2023-11-18T23:04:13.170Z,502.90
2023-11-18T23:07:00.887Z,648.30
2023-11-18T23:09:47.572Z,736.30
2023-11-18T23:12:34.569Z,335.90
2023-11-18T23:15:23.038Z,302.90
2023-11-18T23:18:15.959Z,220.40
2023-11-18T23:21:03.793Z,230.10
2023-11-18T23:23:53.145Z,208.10
2023-11-18T23:26:39.989Z,219.80
2023-11-18T23:29:26.937Z,238.00
2023-11-18T23:32:13.826Z,225.70
2023-11-18T23:35:02.277Z,219.60
2023-11-18T23:37:50.300Z,220.40
2023-11-18T23:40:38.826Z,261.30
2023-11-18T23:43:25.616Z,321.00
2023-11-18T23:46:14.548Z,230.90
2023-11-18T23:49:01.831Z,181.50
2023-11-18T23:51:48.942Z,160.70
2023-11-18T23:54:37.518Z,152.40
2023-11-18T23:57:27.507Z,146.20
